createdAt,value
2023-05-08T00:04:10.897Z,2.50
2023-05-08T00:09:14.946Z,2.70
2023-05-08T00:14:18.476Z,2.10
2023-05-08T00:19:21.576Z,2.05
2023-05-08T00:24:25.351Z,1.25
2023-05-08T00:29:28.946Z,2.00
2023-05-08T00:34:32.660Z,2.55
2023-05-08T00:39:36.624Z,2.15
2023-05-08T00:44:40.508Z,2.10
2023-05-08T00:49:44.303Z,2.13
2023-05-08T00:54:48.915Z,2.20
2023-05-08T00:59:54.635Z,2.05
2023-05-08T01:04:58.872Z,3.25
2023-05-08T01:10:02.705Z,2.13
2023-05-08T01:15:44.103Z,2.60
2023-05-08T01:21:09.779Z,2.50
2023-05-08T01:26:41.853Z,2.17
2023-05-08T01:32:10.762Z,1.77
2023-05-08T01:37:18.180Z,2.38
2023-05-08T01:42:45.144Z,2.13
2023-05-08T01:47:59.332Z,2.35
2023-05-08T01:53:18.520Z,2.00
2023-05-08T01:58:25.106Z,2.13
2023-05-08T02:03:32.166Z,2.30
2023-05-08T02:08:37.687Z,2.33
2023-05-08T02:13:43.075Z,2.45
2023-05-08T02:18:52.199Z,2.40
2023-05-08T02:23:58.702Z,2.20
2023-05-08T02:29:04.344Z,1.70
2023-05-08T02:34:10.489Z,2.08
2023-05-08T02:39:16.546Z,2.50
2023-05-08T02:44:21.018Z,2.33
2023-05-08T02:49:45.545Z,2.30
2023-05-08T02:54:59.431Z,2.42
2023-05-08T03:00:17.273Z,2.40
2023-05-08T03:05:30.852Z,2.40
2023-05-08T03:10:35.836Z,2.25
2023-05-08T03:15:55.864Z,2.45
2023-05-08T03:21:02.126Z,2.40
2023-05-08T03:26:06.620Z,2.53
2023-05-08T03:31:12.879Z,2.45
2023-05-08T03:36:18.908Z,1.93
2023-05-08T03:46:27.386Z,2.30
2023-05-08T03:51:33.261Z,2.40
2023-05-08T03:56:37.717Z,2.03
2023-05-08T04:01:52.977Z,2.40
2023-05-08T04:07:08.766Z,2.37
2023-05-08T04:12:57.953Z,2.63
2023-05-08T04:18:15.522Z,2.13
2023-05-08T04:23:22.743Z,2.75
2023-05-08T04:28:27.974Z,2.13
2023-05-08T04:33:31.995Z,2.38
2023-05-08T04:38:40.078Z,1.92
2023-05-08T04:43:44.705Z,2.10
2023-05-08T04:48:49.140Z,2.17
2023-05-08T04:53:54.246Z,2.55
2023-05-08T04:58:57.435Z,2.30
2023-05-08T05:04:01.483Z,2.42
2023-05-08T05:09:05.544Z,2.58
2023-05-08T05:14:09.412Z,2.28
2023-05-08T05:19:13.023Z,2.30
2023-05-08T05:24:18.549Z,2.28
2023-05-08T05:29:21.955Z,2.60
2023-05-08T05:34:26.619Z,2.45
2023-05-08T05:39:29.952Z,2.85
2023-05-08T05:44:34.820Z,2.58
2023-05-08T05:49:39.951Z,2.65
2023-05-08T05:54:43.615Z,2.70
2023-05-08T05:59:46.909Z,2.60
2023-05-08T06:04:52.697Z,3.45
2023-05-08T06:09:56.893Z,3.15
2023-05-08T06:15:01.248Z,3.30
2023-05-08T06:20:05.035Z,3.30
2023-05-08T06:25:10.128Z,3.10
2023-05-08T06:30:13.956Z,3.47
2023-05-08T06:35:20.998Z,4.13
2023-05-08T06:40:24.334Z,4.32
2023-05-08T06:45:27.890Z,4.75
2023-05-08T06:50:31.532Z,4.85
2023-05-08T06:55:35.664Z,4.10
2023-05-08T07:00:38.919Z,4.40
2023-05-08T07:05:42.249Z,4.22
2023-05-08T07:10:46.118Z,3.30
2023-05-08T07:15:50.187Z,2.70
2023-05-08T07:20:53.853Z,6.85
2023-05-08T07:25:58.305Z,3.13
2023-05-08T07:31:07.344Z,3.10
2023-05-08T07:36:11.330Z,3.95
2023-05-08T07:41:14.931Z,2.50
2023-05-08T07:46:19.287Z,2.90
2023-05-08T07:51:23.406Z,2.83
2023-05-08T07:56:28.811Z,2.65
2023-05-08T08:01:35.391Z,4.60
2023-05-08T08:06:39.121Z,4.40
2023-05-08T08:11:42.959Z,4.13
2023-05-08T08:16:46.861Z,4.82
2023-05-08T08:21:50.206Z,4.68
2023-05-08T08:26:54.411Z,2.83
2023-05-08T08:31:58.633Z,2.72
2023-05-08T08:37:02.731Z,2.40
2023-05-08T08:42:07.004Z,2.33
2023-05-08T08:47:15.047Z,2.20
2023-05-08T08:52:28.592Z,2.15
2023-05-08T08:57:35.710Z,2.42
2023-05-08T09:02:40.400Z,1.70
2023-05-08T09:07:45.188Z,2.00
2023-05-08T09:12:48.906Z,1.60
2023-05-08T09:17:52.162Z,1.98
2023-05-08T09:22:56.166Z,2.10
2023-05-08T09:28:16.712Z,1.85
2023-05-08T09:33:21.331Z,2.22
2023-05-08T09:38:38.984Z,1.90
2023-05-08T09:44:00.486Z,1.88
2023-05-08T09:49:04.789Z,1.63
2023-05-08T09:54:18.481Z,1.77
2023-05-08T09:59:33.919Z,1.50
2023-05-08T10:04:39.092Z,2.20
2023-05-08T10:09:59.382Z,2.92
2023-05-08T10:15:02.917Z,2.70
2023-05-08T10:20:08.754Z,2.70
2023-05-08T10:25:18.088Z,2.10
2023-05-08T10:30:26.228Z,2.78
2023-05-08T10:35:32.250Z,6.10
2023-05-08T10:40:36.989Z,13.10
2023-05-08T10:45:41.292Z,5.90
2023-05-08T10:51:28.996Z,6.00
2023-05-08T10:56:32.481Z,6.53
2023-05-08T11:01:39.494Z,6.15
2023-05-08T11:06:49.548Z,6.68
2023-05-08T11:12:08.067Z,5.43
2023-05-08T11:17:11.714Z,4.00
2023-05-08T11:22:17.821Z,3.05
2023-05-08T11:27:41.189Z,3.17
2023-05-08T11:33:07.837Z,2.47
2023-05-08T11:38:16.694Z,1.83
2023-05-08T11:43:27.684Z,2.40
2023-05-08T11:48:33.234Z,1.67
2023-05-08T11:53:38.104Z,1.98
2023-05-08T11:58:41.793Z,2.30
2023-05-08T12:03:45.881Z,2.83
2023-05-08T12:08:49.767Z,2.70
2023-05-08T12:13:55.224Z,2.30
2023-05-08T12:18:59.189Z,1.90
2023-05-08T12:24:07.512Z,2.15
2023-05-08T12:29:10.637Z,1.83
2023-05-08T12:34:14.541Z,2.67
2023-05-08T12:39:19.557Z,2.92
2023-05-08T12:44:25.753Z,1.70
2023-05-08T12:49:33.205Z,1.60
2023-05-08T12:54:41.482Z,1.70
2023-05-08T12:59:46.686Z,1.70
2023-05-08T13:04:58.289Z,1.88
2023-05-08T13:10:06.175Z,1.90
2023-05-08T13:15:10.402Z,1.92
2023-05-08T13:20:14.633Z,1.88
2023-05-08T13:25:18.436Z,2.05
2023-05-08T13:30:22.658Z,1.58
2023-05-08T13:35:26.365Z,1.73
2023-05-08T13:40:30.590Z,1.50
2023-05-08T13:45:34.263Z,1.55
2023-05-08T13:50:37.651Z,1.20
2023-05-08T13:55:42.550Z,1.40
2023-05-08T14:00:46.973Z,1.38
2023-05-08T14:05:50.601Z,1.45
2023-05-08T14:10:54.324Z,1.40
2023-05-08T14:15:58.169Z,1.23
2023-05-08T14:21:02.262Z,1.17
2023-05-08T14:26:05.939Z,1.45
2023-05-08T14:31:09.647Z,1.50
2023-05-08T14:36:12.891Z,1.83
2023-05-08T14:41:16.191Z,1.63
2023-05-08T14:46:20.249Z,2.42
2023-05-08T14:51:24.289Z,3.50
2023-05-08T14:56:30.198Z,3.45
2023-05-08T15:01:36.793Z,3.17
2023-05-08T15:06:41.915Z,3.10
2023-05-08T15:11:45.791Z,2.22
2023-05-08T15:16:50.060Z,1.92
2023-05-08T15:21:54.369Z,1.90
2023-05-08T15:26:58.490Z,1.60
2023-05-08T15:32:02.084Z,1.75
2023-05-08T15:37:06.531Z,2.25
2023-05-08T15:42:11.067Z,2.50
2023-05-08T15:47:15.274Z,2.75
2023-05-08T15:52:20.197Z,2.70
2023-05-08T15:57:27.267Z,3.72
2023-05-08T16:02:31.588Z,3.90
2023-05-08T16:07:35.414Z,4.28
2023-05-08T16:12:39.353Z,3.40
2023-05-08T16:17:43.226Z,5.32
2023-05-08T16:22:47.431Z,4.20
2023-05-08T16:27:51.987Z,8.38
2023-05-08T16:32:56.131Z,6.20
2023-05-08T16:38:00.003Z,4.93
2023-05-08T16:43:04.192Z,6.18
2023-05-08T16:48:07.429Z,5.88
2023-05-08T16:53:11.164Z,5.60
2023-05-08T16:58:16.309Z,6.93
2023-05-08T17:03:20.372Z,6.20
2023-05-08T17:08:24.670Z,8.30
2023-05-08T17:13:28.122Z,6.35
2023-05-08T17:18:33.884Z,6.47
2023-05-08T17:23:38.027Z,7.35
2023-05-08T17:28:41.482Z,6.20
2023-05-08T17:33:44.836Z,6.90
2023-05-08T17:38:50.737Z,8.18
2023-05-08T17:43:54.406Z,7.85
2023-05-08T17:48:57.697Z,9.57
2023-05-08T17:54:02.140Z,54.47
2023-05-08T17:59:06.381Z,46.67
2023-05-08T18:04:10.119Z,15.55
2023-05-08T18:09:14.210Z,9.80
2023-05-08T18:14:18.013Z,9.70
2023-05-08T18:19:21.867Z,10.50
2023-05-08T18:24:25.745Z,11.05
2023-05-08T18:29:29.368Z,12.07
2023-05-08T18:34:33.268Z,11.05
2023-05-08T18:39:37.071Z,10.13
2023-05-08T18:44:40.714Z,9.70
2023-05-08T18:49:44.514Z,10.98
2023-05-08T18:54:48.770Z,10.38
2023-05-08T18:59:52.961Z,10.25
2023-05-08T19:04:57.003Z,10.52
2023-05-08T19:10:00.825Z,12.45
2023-05-08T19:15:04.144Z,17.50
2023-05-08T19:20:08.541Z,20.02
2023-05-08T19:25:12.982Z,16.23
2023-05-08T19:30:16.785Z,17.05
2023-05-08T19:35:21.421Z,19.52
2023-05-08T19:40:24.540Z,19.50
2023-05-08T19:45:27.637Z,18.75
2023-05-08T19:50:31.786Z,18.02
2023-05-08T19:55:36.055Z,17.70
2023-05-08T20:00:39.628Z,16.55
2023-05-08T20:05:42.924Z,13.57
2023-05-08T20:10:50.052Z,11.80
2023-05-08T20:20:58.445Z,9.48
2023-05-08T20:26:02.542Z,9.70
2023-05-08T20:31:06.606Z,10.00
2023-05-08T20:36:10.447Z,12.00
2023-05-08T20:41:13.556Z,10.77
2023-05-08T20:46:16.708Z,9.82
2023-05-08T20:51:20.133Z,8.60
2023-05-08T20:56:23.875Z,7.07
2023-05-08T21:01:27.733Z,6.25
2023-05-08T21:06:31.511Z,5.85
2023-05-08T21:11:36.035Z,5.22
2023-05-08T21:16:39.723Z,4.22
2023-05-08T21:21:45.307Z,3.38
2023-05-08T21:26:48.999Z,2.85
2023-05-08T21:31:52.944Z,3.10
2023-05-08T21:36:56.314Z,2.65
2023-05-08T21:42:00.414Z,3.20
2023-05-08T21:47:04.460Z,2.80
2023-05-08T21:52:08.379Z,2.83
2023-05-08T21:57:12.033Z,2.63
2023-05-08T22:02:16.862Z,2.70
2023-05-08T22:07:21.665Z,3.40
2023-05-08T22:12:25.449Z,3.00
2023-05-08T22:17:29.948Z,3.20
2023-05-08T22:22:33.825Z,3.00
2023-05-08T22:27:37.448Z,2.70
2023-05-08T22:32:40.699Z,3.10
2023-05-08T22:37:44.217Z,3.00
2023-05-08T22:42:47.973Z,2.45
2023-05-08T22:47:51.701Z,1.80
2023-05-08T22:52:55.968Z,1.88
2023-05-08T22:57:59.642Z,2.67
2023-05-08T23:03:03.884Z,2.38
2023-05-08T23:08:07.549Z,2.38
2023-05-08T23:13:11.308Z,2.17
2023-05-08T23:18:15.147Z,2.20
2023-05-08T23:23:18.882Z,1.88
2023-05-08T23:28:22.626Z,1.65
2023-05-08T23:33:25.898Z,2.50
2023-05-08T23:38:29.840Z,1.70
2023-05-08T23:43:33.610Z,1.80
2023-05-08T23:48:37.157Z,1.60
2023-05-08T23:53:41.028Z,1.58
2023-05-08T23:58:45.303Z,1.60
